This is the latest recevied weather packets stored in our database for station/object ENRA. If no packets are shown the sender has not sent any weather packets the latest 1 day(s).
| Time | Temp. | Humidity | Pressure | Rain* | Wind** | Luminosity | Snow |
|---|---|---|---|---|---|---|---|
| 1778009586 | 0.56° C | 10% | - | - | 0.45 m/s, 0° | - | - |
| 1778007786 | 0.56° C | 93% | 1003 hPa | - | 0.89 m/s, 0° | - | - |
| 1778005986 | 1.67° C | 93% | 1003 hPa | - | 0 m/s | - | - |
| 1778004187 | 1.67° C | 93% | 1003 hPa | - | 1.34 m/s, 80° | - | - |
| 1778002387 | 1.67° C | 93% | 1003 hPa | - | 1.34 m/s, 90° | - | - |
| 1778000587 | 1.67° C | 86% | 1003 hPa | - | 1.34 m/s, 120° | - | - |
| 1777998787 | 1.67° C | 86% | 1003 hPa | - | 2.24 m/s, 280° | - | - |
| 1777996987 | 0.56° C | 93% | 1003 hPa | - | 2.24 m/s, 250° | - | - |
| 1777995187 | 1.67° C | 80% | 1003 hPa | - | 4.02 m/s, 280° | - | - |
| 1777993386 | 2.78° C | 86% | 1003 hPa | - | 1.34 m/s, 0° | - | - |
| 1777991587 | 0.56° C | 93% | 1003 hPa | - | 2.24 m/s, 360° | - | - |
| 1777989787 | 1.67° C | 86% | 1003 hPa | - | 4.02 m/s, 340° | - | - |
| 1777987987 | 1.67° C | 86% | 1003 hPa | - | 5.36 m/s, 320° | - | - |
| 1777986187 | 3.89° C | 69% | 1002 hPa | - | 3.13 m/s, 270° | - | - |
| 1777984386 | 3.89° C | 64% | 1002 hPa | - | 5.36 m/s, 250° | - | - |
| 1777982586 | 3.89° C | 69% | 1002 hPa | - | 4.02 m/s, 260° | - | - |
| 1777980787 | 5° C | 65% | 1001 hPa | - | 3.58 m/s, 270° | - | - |
| 1777978987 | 3.89° C | 75% | 1001 hPa | - | 2.68 m/s, 10° | - | - |
| 1777977186 | 1.67° C | 80% | 1001 hPa | - | 4.47 m/s, 270° | - | - |
| 1777975387 | 5° C | 65% | 1001 hPa | - | 4.02 m/s, 270° | - | - |
| 1777973586 | 3.89° C | 69% | 1001 hPa | - | 4.02 m/s, 240° | - | - |
| 1777971787 | 2.78° C | 80% | 1001 hPa | - | 5.36 m/s, 250° | - | - |
* Rain since midnight (hover to see other rain measurements)
** Current wind speed in m/s (hover to see current wind gust speed)